Time;durP1;ratioP1;P1;durP2;ratioP2;P2;SDS_P1;SDS_P2;PMS_P1;PMS_P2;Temp;Humidity;BMP_temperature;BMP_pressure;BME280_temperature;BME280_humidity;BME280_pressure;Samples;Min_cycle;Max_cycle;Signal;HPM_P1;HPM_P2
2021/01/11 00:02:41;;;;;;;0.47;0.47;;;;;;;-5.28;86.58;99981.97;4873939;29;20475;-84
2021/01/11 00:05:23;;;;;;;0.50;0.50;;;;;;;-5.24;86.33;99997.31;4868756;29;20467;-83
2021/01/11 00:08:28;;;;;;;0.40;0.40;;;;;;;-5.35;85.97;99990.22;4872721;29;20475;-84
2021/01/11 00:11:32;;;;;;;0.50;0.50;;;;;;;-5.29;86.62;99995.97;4856149;29;20884;-83
2021/01/11 00:14:25;;;;;;;0.40;0.40;;;;;;;-5.33;86.53;99995.34;4884762;29;20439;-83
2021/01/11 00:17:50;;;;;;;0.40;0.40;;;;;;;-5.44;86.88;99974.38;4885392;29;20458;-84
2021/01/11 00:20:49;;;;;;;0.47;0.47;;;;;;;-5.45;86.78;99981.38;4883805;29;20446;-84
2021/01/11 00:23:45;;;;;;;0.50;0.50;;;;;;;-5.35;87.31;99987.63;4869252;29;20460;-84
2021/01/11 00:26:58;;;;;;;0.40;0.40;;;;;;;-5.44;86.92;99970.00;4872145;29;20424;-83
2021/01/11 00:30:05;;;;;;;0.50;0.50;;;;;;;-5.44;86.38;99977.00;4872992;29;20431;-83
2021/01/11 00:37:33;;;;;;;0.50;0.50;;;;;;;-5.52;85.99;99981.94;4885742;29;20429;-84
2021/01/11 00:40:52;;;;;;;0.40;0.40;;;;;;;-5.64;85.91;99973.19;4873205;29;20464;-84
2021/01/11 00:43:43;;;;;;;0.50;0.50;;;;;;;-5.67;85.57;99977.81;4883508;29;20444;-83
2021/01/11 00:46:37;;;;;;;0.50;0.50;;;;;;;-5.77;85.78;99962.81;4868270;29;20447;-83
2021/01/11 00:49:44;;;;;;;0.50;0.50;;;;;;;-5.70;85.89;99978.88;4884727;29;20464;-83
2021/01/11 00:53:00;;;;;;;0.40;0.40;;;;;;;-5.75;85.67;99972.31;4871294;29;20473;-83
2021/01/11 00:55:57;;;;;;;0.50;0.50;;;;;;;-5.79;85.77;99972.53;4867682;29;20439;-83
2021/01/11 01:03:22;;;;;;;0.50;0.50;;;;;;;-5.89;85.44;99974.16;4869450;29;20454;-83
2021/01/11 01:06:14;;;;;;;0.50;0.50;;;;;;;-5.94;85.39;99968.41;4881480;29;20459;-83
2021/01/11 01:09:15;;;;;;;0.40;0.40;;;;;;;-5.95;85.46;99963.28;4839706;29;20456;-82
2021/01/11 01:12:46;;;;;;;0.50;0.50;;;;;;;-5.94;85.30;99972.78;4864502;29;20479;-82
2021/01/11 01:15:49;;;;;;;0.53;0.53;;;;;;;-5.93;85.42;99971.84;4865286;29;20479;-82
2021/01/11 01:19:07;;;;;;;0.40;0.40;;;;;;;-5.99;85.49;99980.94;4874428;29;20874;-83
2021/01/11 01:22:33;;;;;;;0.50;0.50;;;;;;;-5.89;85.34;99996.78;4875376;29;20434;-82
2021/01/11 01:25:57;;;;;;;0.40;0.40;;;;;;;-5.98;85.15;99979.16;4885333;29;20427;-83
2021/01/11 01:28:53;;;;;;;0.50;0.50;;;;;;;-6.04;85.14;99975.22;4870593;29;20439;-83
2021/01/11 01:31:43;;;;;;;0.50;0.50;;;;;;;-6.04;85.05;99979.59;4867514;29;20471;-82
2021/01/11 01:34:37;;;;;;;0.50;0.50;;;;;;;-5.97;85.37;99986.88;4855439;29;20459;-83
2021/01/11 01:37:42;;;;;;;0.50;0.50;;;;;;;-6.06;84.98;99974.47;4882719;29;20431;-82
2021/01/11 01:40:32;;;;;;;0.40;0.40;;;;;;;-6.02;85.40;99978.53;4871065;29;20445;-82
2021/01/11 01:43:19;;;;;;;0.50;0.50;;;;;;;-6.10;85.22;99961.75;4867520;29;20481;-82
2021/01/11 01:46:25;;;;;;;0.50;0.50;;;;;;;-6.12;85.00;99955.81;4881830;29;20456;-83
2021/01/11 01:49:15;;;;;;;0.40;0.40;;;;;;;-6.15;84.91;99961.22;4856412;29;20434;-82
2021/01/11 01:52:05;;;;;;;0.40;0.40;;;;;;;-6.19;84.71;99954.56;4884265;29;20427;-83
2021/01/11 01:54:51;;;;;;;0.40;0.40;;;;;;;-6.12;84.82;99961.03;4869841;29;20414;-83
2021/01/11 01:57:41;;;;;;;0.50;0.50;;;;;;;-6.19;84.76;99957.16;4868996;29;20438;-82
2021/01/11 02:00:23;;;;;;;0.50;0.50;;;;;;;-6.26;84.87;99951.56;4870210;29;20439;-82
2021/01/11 02:03:32;;;;;;;0.50;0.50;;;;;;;-6.21;85.10;99948.63;4870686;29;20451;-83
2021/01/11 02:06:16;;;;;;;0.50;0.50;;;;;;;-6.19;84.83;99960.59;4887085;29;20549;-82
2021/01/11 02:09:12;;;;;;;0.50;0.50;;;;;;;-6.19;85.08;99965.81;4873877;29;20443;-82
2021/01/11 02:12:10;;;;;;;0.50;0.50;;;;;;;-6.14;85.17;99965.50;4871265;29;20881;-83
2021/01/11 02:15:12;;;;;;;0.50;0.50;;;;;;;-6.18;85.37;99957.06;4858148;29;20466;-82
2021/01/11 02:18:22;;;;;;;0.50;0.50;;;;;;;-6.30;85.50;99939.66;4872350;29;20431;-82
2021/01/11 02:21:47;;;;;;;0.50;0.50;;;;;;;-6.24;85.36;99955.72;4870442;29;20436;-82
2021/01/11 02:25:09;;;;;;;0.40;0.40;;;;;;;-6.24;85.85;99955.72;4884621;29;20452;-81
2021/01/11 02:27:56;;;;;;;0.50;0.50;;;;;;;-6.35;85.29;99950.41;4884425;29;20475;-82
2021/01/11 02:31:05;;;;;;;0.50;0.50;;;;;;;-6.44;85.05;99932.75;4875922;29;20430;-82
2021/01/11 02:33:44;;;;;;;0.60;0.60;;;;;;;-6.42;84.90;99932.66;4869083;29;20516;-82
2021/01/11 02:36:31;;;;;;;0.50;0.50;;;;;;;-6.40;84.69;99933.41;4872541;29;20435;-83
2021/01/11 02:39:25;;;;;;;0.40;0.40;;;;;;;-6.37;85.21;99944.47;4886276;29;20467;-82
2021/01/11 02:42:04;;;;;;;0.60;0.60;;;;;;;-6.37;85.29;99951.44;4883594;29;20455;-82
2021/01/11 02:44:57;;;;;;;0.60;0.60;;;;;;;-6.40;85.26;99944.69;4886148;29;20420;-82
2021/01/11 02:48:13;;;;;;;0.50;0.50;;;;;;;-6.39;85.08;99942.91;4872185;29;20442;-82
2021/01/11 02:51:34;;;;;;;0.40;0.40;;;;;;;-6.40;85.44;99942.06;4886064;29;20446;-82
2021/01/11 02:54:26;;;;;;;0.40;0.40;;;;;;;-6.40;85.22;99933.41;4885977;29;20479;-82
2021/01/11 02:57:22;;;;;;;0.50;0.50;;;;;;;-6.47;85.55;99922.56;4867978;29;20468;-82
2021/01/11 03:00:16;;;;;;;0.40;0.40;;;;;;;-6.57;85.57;99908.47;4888407;29;20484;-83
2021/01/11 03:02:59;;;;;;;0.40;0.40;;;;;;;-6.43;85.68;99931.00;4858645;29;20452;-82
2021/01/11 03:05:51;;;;;;;0.40;0.40;;;;;;;-6.43;86.01;99931.81;4857142;29;20455;-82
2021/01/11 03:08:37;;;;;;;0.50;0.50;;;;;;;-6.43;86.19;99923.16;4885022;29;20438;-82
2021/01/11 03:11:38;;;;;;;0.50;0.50;;;;;;;-6.48;86.20;99913.06;4881059;29;20487;-80
2021/01/11 03:14:24;;;;;;;0.50;0.50;;;;;;;-6.52;86.15;99910.78;4871019;29;20518;-82
2021/01/11 03:17:21;;;;;;;0.43;0.43;;;;;;;-6.52;85.72;99911.59;4885471;29;20438;-82
2021/01/11 03:20:03;;;;;;;0.50;0.50;;;;;;;-6.60;86.05;99889.63;4884929;29;20443;-82
2021/01/11 03:22:44;;;;;;;0.40;0.40;;;;;;;-6.47;85.74;99921.72;4871027;29;20459;-83
2021/01/11 03:25:25;;;;;;;0.43;0.43;;;;;;;-6.64;85.25;99902.03;4871260;29;20459;-82
2021/01/11 03:28:10;;;;;;;0.40;0.40;;;;;;;-6.53;85.66;99914.34;4870665;29;20526;-82
2021/01/11 03:30:59;;;;;;;0.40;0.40;;;;;;;-6.61;85.34;99903.59;4886987;29;20431;-82
2021/01/11 03:33:47;;;;;;;0.40;0.40;;;;;;;-6.67;85.37;99894.41;4884582;29;20502;-82
2021/01/11 03:36:27;;;;;;;0.50;0.50;;;;;;;-6.72;85.82;99880.88;4885021;29;20423;-82
2021/01/11 03:39:17;;;;;;;0.40;0.40;;;;;;;-6.65;85.59;99902.13;4886552;29;20435;-82
2021/01/11 03:41:56;;;;;;;0.40;0.40;;;;;;;-6.69;85.58;99896.28;4870844;29;20484;-81
2021/01/11 03:44:42;;;;;;;0.50;0.50;;;;;;;-6.74;85.47;99898.38;4871530;29;20447;-82
2021/01/11 03:47:32;;;;;;;0.50;0.50;;;;;;;-6.72;85.62;99904.34;4885309;29;20415;-82
2021/01/11 03:50:18;;;;;;;0.50;0.50;;;;;;;-6.72;85.63;99904.34;4898990;29;20436;-82
2021/01/11 03:53:03;;;;;;;0.50;0.50;;;;;;;-6.71;86.12;99898.16;4884952;29;20474;-82
2021/01/11 03:55:47;;;;;;;0.40;0.40;;;;;;;-6.68;86.02;99905.78;4898886;29;20953;-81
2021/01/11 03:58:46;;;;;;;0.40;0.40;;;;;;;-6.68;85.88;99900.56;4885106;29;20462;-80
2021/01/11 04:01:44;;;;;;;0.50;0.50;;;;;;;-6.69;85.63;99898.91;4885090;29;20483;-82
2021/01/11 04:04:29;;;;;;;0.50;0.50;;;;;;;-6.62;85.46;99925.38;4870650;29;20461;-82
2021/01/11 04:07:11;;;;;;;0.40;0.40;;;;;;;-6.79;84.91;99903.91;4870178;29;20460;-82
2021/01/11 04:09:58;;;;;;;0.40;0.40;;;;;;;-6.65;85.13;99921.22;4884247;29;20507;-81
2021/01/11 04:12:37;;;;;;;0.50;0.50;;;;;;;-6.77;84.53;99919.44;4870058;29;20463;-82
2021/01/11 04:15:19;;;;;;;0.50;0.50;;;;;;;-6.84;84.51;99912.97;4870563;29;20470;-82
2021/01/11 04:20:59;;;;;;;0.50;0.50;;;;;;;-6.78;85.21;99920.38;4884177;29;20443;-82
2021/01/11 04:23:39;;;;;;;0.40;0.40;;;;;;;-6.87;85.07;99907.97;4855042;29;20552;-82
2021/01/11 04:26:21;;;;;;;0.50;0.50;;;;;;;-6.79;85.86;99916.09;4856541;29;20438;-82
2021/01/11 04:29:23;;;;;;;0.40;0.40;;;;;;;-6.68;86.28;99918.81;4872622;29;20450;-82
2021/01/11 04:32:17;;;;;;;0.50;0.50;;;;;;;-6.62;86.00;99930.59;4871527;29;20538;-82
2021/01/11 04:35:06;;;;;;;0.40;0.40;;;;;;;-6.62;86.13;99925.38;4902980;29;20418;-82
2021/01/11 04:37:49;;;;;;;0.50;0.50;;;;;;;-6.66;85.65;99911.72;4902685;29;20506;-82
2021/01/11 04:40:50;;;;;;;0.40;0.40;;;;;;;-6.54;86.34;99918.72;4874700;29;20457;-83
2021/01/11 04:43:49;;;;;;;0.50;0.50;;;;;;;-6.49;86.94;99911.41;4903823;29;20418;-82
2021/01/11 04:46:43;;;;;;;0.50;0.50;;;;;;;-6.31;87.35;99938.81;4902781;29;20446;-82
2021/01/11 04:49:39;;;;;;;0.50;0.50;;;;;;;-6.20;87.38;99945.88;4879382;29;20447;-81
2021/01/11 04:55:54;;;;;;;0.60;0.60;;;;;;;-6.14;87.42;99929.00;4870417;29;20454;-81
2021/01/11 04:59:11;;;;;;;0.50;0.50;;;;;;;-6.14;87.55;99921.16;4890921;29;20471;-84
2021/01/11 05:01:56;;;;;;;0.40;0.40;;;;;;;-5.99;87.45;99940.97;4903584;29;20426;-82
2021/01/11 05:05:29;;;;;;;0.50;0.50;;;;;;;-5.94;87.82;99936.25;4902161;29;20479;-83
2021/01/11 05:08:52;;;;;;;0.40;0.40;;;;;;;-5.85;87.99;99939.03;4890734;29;20438;-82
2021/01/11 05:11:52;;;;;;;0.40;0.40;;;;;;;-5.81;87.66;99953.53;4873894;29;20455;-83
2021/01/11 05:15:33;;;;;;;0.50;0.50;;;;;;;-5.94;87.66;99921.44;4894469;29;20433;-83
2021/01/11 05:18:25;;;;;;;0.40;0.40;;;;;;;-5.87;87.85;99927.03;4889100;29;20435;-83
2021/01/11 05:21:56;;;;;;;0.40;0.40;;;;;;;-5.79;87.78;99950.81;4865413;29;20444;-83
2021/01/11 05:24:52;;;;;;;0.50;0.50;;;;;;;-5.90;87.43;99935.09;4865434;29;20412;-82
2021/01/11 05:28:08;;;;;;;0.50;0.50;;;;;;;-5.95;87.36;99937.19;4853093;29;20519;-82
2021/01/11 05:31:16;;;;;;;0.40;0.40;;;;;;;-5.85;87.11;99956.47;4865249;29;20505;-82
2021/01/11 05:34:27;;;;;;;0.50;0.50;;;;;;;-5.89;87.45;99955.03;4861680;29;20479;-82
2021/01/11 05:37:11;;;;;;;0.50;0.50;;;;;;;-5.94;87.04;99954.53;4842278;29;20470;-83
2021/01/11 05:40:20;;;;;;;0.50;0.50;;;;;;;-5.89;87.32;99955.88;4868546;29;20452;-82
2021/01/11 05:43:05;;;;;;;0.50;0.50;;;;;;;-5.96;86.81;99956.41;4868690;29;20444;-82
2021/01/11 05:45:56;;;;;;;0.40;0.40;;;;;;;-5.92;86.84;99965.66;4851709;29;20443;-81
2021/01/11 05:49:23;;;;;;;0.50;0.50;;;;;;;-6.11;86.49;99937.44;4868468;29;20450;-82
2021/01/11 05:52:34;;;;;;;0.40;0.40;;;;;;;-6.05;86.39;99955.28;4855018;29;20452;-82
2021/01/11 05:55:26;;;;;;;0.50;0.50;;;;;;;-6.19;86.44;99941.50;4868502;29;20434;-82
2021/01/11 05:58:10;;;;;;;0.50;0.50;;;;;;;-6.19;86.50;99946.72;4876390;29;20510;-82
2021/01/11 06:01:07;;;;;;;0.50;0.50;;;;;;;-6.15;86.00;99962.06;4873199;29;20431;-82
2021/01/11 06:03:54;;;;;;;0.40;0.40;;;;;;;-6.19;85.86;99959.78;4887430;29;20447;-82
2021/01/11 06:06:37;;;;;;;0.50;0.50;;;;;;;-6.30;85.51;99950.09;4871831;29;20463;-82
2021/01/11 06:09:17;;;;;;;0.40;0.40;;;;;;;-6.18;85.84;99972.72;4873524;29;20440;-82
2021/01/11 06:12:08;;;;;;;0.40;0.40;;;;;;;-6.40;86.14;99944.69;4858534;29;20452;-82
2021/01/11 06:15:12;;;;;;;0.50;0.50;;;;;;;-6.32;86.15;99954.56;4874533;29;20446;-82
2021/01/11 06:18:19;;;;;;;0.50;0.50;;;;;;;-6.26;86.14;99970.63;4875839;29;20435;-82
2021/01/11 06:21:17;;;;;;;0.50;0.50;;;;;;;-6.41;85.95;99942.16;4856873;29;20489;-83
2021/01/11 06:24:19;;;;;;;0.50;0.50;;;;;;;-6.34;85.68;99970.31;4886559;29;20438;-82
2021/01/11 06:27:18;;;;;;;0.50;0.50;;;;;;;-6.37;85.32;99964.47;4870883;29;20444;-82
2021/01/11 06:30:03;;;;;;;0.43;0.43;;;;;;;-6.45;85.38;99966.78;4871718;29;20439;-82
2021/01/11 06:32:40;;;;;;;0.50;0.50;;;;;;;-6.52;85.51;99960.28;4888213;29;20478;-81
2021/01/11 06:35:14;;;;;;;0.50;0.50;;;;;;;-6.51;85.80;99951.53;4871719;29;20454;-82
2021/01/11 06:38:19;;;;;;;0.40;0.40;;;;;;;-6.63;85.49;99945.41;4872142;29;20439;-81
2021/01/11 06:41:18;;;;;;;0.40;0.40;;;;;;;-6.51;85.77;99964.56;4886255;29;20495;-82
2021/01/11 06:44:27;;;;;;;0.50;0.50;;;;;;;-6.55;85.74;99968.34;4897048;29;20460;-81
2021/01/11 06:47:38;;;;;;;0.50;0.50;;;;;;;-6.65;85.79;99962.06;4853774;29;20487;-82
2021/01/11 06:50:30;;;;;;;0.50;0.50;;;;;;;-6.69;85.29;99967.50;4885171;29;20517;-82
2021/01/11 06:53:31;;;;;;;0.50;0.50;;;;;;;-6.73;84.99;99971.25;4886162;29;20464;-82
2021/01/11 06:56:38;;;;;;;0.50;0.50;;;;;;;-6.61;85.54;99982.59;4882581;29;20439;-82
2021/01/11 06:59:29;;;;;;;0.50;0.50;;;;;;;-6.61;85.61;99997.41;4886026;29;20466;-82
2021/01/11 07:02:25;;;;;;;0.50;0.50;;;;;;;-6.64;85.47;99977.59;4887486;29;20463;-82
2021/01/11 07:05:09;;;;;;;0.50;0.50;;;;;;;-6.74;85.75;99973.94;4871953;29;20451;-83
2021/01/11 07:12:03;;;;;;;;;;;;;;;;;;;;;
2021/01/11 07:15:17;;;;;;;0.60;0.60;;;;;;;-6.68;85.91;99971.78;4885645;29;20451;-82
2021/01/11 07:19:02;;;;;;;0.50;0.50;;;;;;;-6.54;86.55;99999.53;4886458;29;20495;-82
2021/01/11 07:22:09;;;;;;;0.47;0.47;;;;;;;-6.52;86.38;100005.44;4899618;29;20456;-82
2021/01/11 07:25:25;;;;;;;0.50;0.50;;;;;;;-6.48;86.35;100001.69;4898260;29;20447;-83
2021/01/11 07:28:27;;;;;;;0.60;0.60;;;;;;;-6.54;86.62;99993.47;4879513;29;20451;-83
2021/01/11 07:31:57;;;;;;;0.50;0.50;;;;;;;-6.42;86.24;100003.91;4886500;29;20776;-82
2021/01/11 07:35:19;;;;;;;0.30;0.30;;;;;;;-6.40;85.80;100003.81;4885099;29;20435;-83
2021/01/11 07:38:39;;;;;;;;;;;;;;;;;;;;;
2021/01/11 07:45:38;;;;;;;0.50;0.50;;;;;;;-6.22;86.47;100019.97;4878852;29;20456;-83
2021/01/11 07:53:17;;;;;;;0.43;0.43;;;;;;;-6.19;86.93;100012.75;4857296;29;20482;-83
2021/01/11 08:04:56;;;;;;;0.50;0.50;;;;;;;-5.99;87.68;100009.63;4863335;29;20451;-81
2021/01/11 08:07:41;;;;;;;0.60;0.60;;;;;;;-5.93;87.45;100011.00;4869811;29;20439;-83
2021/01/11 08:10:38;;;;;;;;;;;;;;;;;;;;;
2021/01/11 08:13:27;;;;;;;0.50;0.50;;;;;;;-5.85;87.66;100006.03;4884553;29;20483;-82
2021/01/11 08:16:31;;;;;;;0.50;0.50;;;;;;;-5.63;87.51;100023.63;4880776;29;20435;-82
2021/01/11 08:19:46;;;;;;;;;;;;;;;;;;;;;
2021/01/11 08:22:36;;;;;;;0.50;0.50;;;;;;;-5.58;88.22;100013.69;4869299;29;20443;-83
2021/01/11 08:25:13;;;;;;;0.40;0.40;;;;;;;-5.37;88.61;100044.38;4869458;29;20507;-82
2021/01/11 08:27:51;;;;;;;0.40;0.40;;;;;;;-5.36;88.81;100027.75;4854686;29;20487;-82
2021/01/11 08:30:23;;;;;;;0.50;0.50;;;;;;;-5.26;88.55;100030.53;4883503;29;20455;-82
2021/01/11 08:33:01;;;;;;;0.50;0.50;;;;;;;-5.11;88.90;100037.28;4841334;29;20507;-83
2021/01/11 08:35:51;;;;;;;0.50;0.50;;;;;;;-5.07;88.89;100022.19;4884608;29;20416;-83
2021/01/11 08:39:15;;;;;;;0.50;0.50;;;;;;;-4.95;89.66;100018.72;4871179;29;20435;-82
2021/01/11 08:42:05;;;;;;;0.40;0.40;;;;;;;-4.65;90.19;100039.97;4884229;29;20458;-83
2021/01/11 08:44:50;;;;;;;0.50;0.50;;;;;;;-4.52;89.96;100045.97;4883929;29;20447;-83
2021/01/11 08:48:05;;;;;;;0.50;0.50;;;;;;;-4.43;89.98;100029.56;4866683;29;20517;-84
2021/01/11 08:51:09;;;;;;;0.50;0.50;;;;;;;-4.05;90.09;100050.22;4857959;29;20539;-83
2021/01/11 08:54:02;;;;;;;0.40;0.40;;;;;;;-3.99;89.64;100038.47;4887048;29;20475;-84
2021/01/11 08:56:39;;;;;;;0.50;0.50;;;;;;;-3.79;89.34;100048.25;4899267;29;20431;-84
2021/01/11 08:59:18;;;;;;;0.40;0.40;;;;;;;-3.67;89.17;100031.56;4883695;29;20450;-84
2021/01/11 09:02:28;;;;;;;0.50;0.50;;;;;;;-3.34;88.83;100058.69;4885084;29;20431;-84
2021/01/11 09:05:45;;;;;;;0.33;0.33;;;;;;;-3.21;88.22;100046.28;4884672;29;20408;-84
2021/01/11 09:09:20;;;;;;;0.40;0.40;;;;;;;-2.92;87.32;100063.16;4883746;29;20515;-84
2021/01/11 09:12:16;;;;;;;0.50;0.50;;;;;;;-2.85;86.33;100045.13;4888268;29;20463;-84
2021/01/11 09:15:33;;;;;;;0.50;0.50;;;;;;;-2.67;85.88;100043.63;4888805;29;20439;-82
2021/01/11 09:18:24;;;;;;;0.40;0.40;;;;;;;-2.43;86.28;100056.53;4888120;29;20502;-84
2021/01/11 09:21:26;;;;;;;0.37;0.37;;;;;;;-2.29;85.88;100050.97;4888580;29;20202;-84
2021/01/11 09:24:40;;;;;;;0.40;0.40;;;;;;;-2.11;84.75;100049.44;4888305;29;20443;-84
2021/01/11 09:31:46;;;;;;;0.40;0.40;;;;;;;-1.79;82.75;100042.28;4881975;29;20187;-85
2021/01/11 09:42:59;;;;;;;0.40;0.40;;;;;;;-1.08;77.40;100048.34;4888745;29;20185;-85
2021/01/11 09:45:53;;;;;;;0.40;0.40;;;;;;;-0.81;77.11;100068.75;4886176;29;20198;-85
2021/01/11 09:49:19;;;;;;;0.40;0.40;;;;;;;-0.67;77.05;100063.06;4885275;29;20187;-84
2021/01/11 09:52:11;;;;;;;0.50;0.50;;;;;;;-0.58;74.87;100054.34;4872233;29;20253;-84
2021/01/11 09:55:53;;;;;;;0.40;0.40;;;;;;;-0.50;73.66;100051.84;4888352;29;20275;-84
2021/01/11 09:59:18;;;;;;;0.50;0.50;;;;;;;-0.45;73.03;100036.47;4887761;29;20212;-84
2021/01/11 10:02:23;;;;;;;0.40;0.40;;;;;;;-0.38;72.33;100043.81;4882298;29;20207;-85
2021/01/11 10:04:59;;;;;;;0.40;0.40;;;;;;;-0.24;72.43;100044.22;4859748;29;20191;-85
2021/01/11 10:08:38;;;;;;;0.40;0.40;;;;;;;-0.11;71.72;100050.03;4840677;29;20190;-85
2021/01/11 10:11:34;;;;;;;0.40;0.40;;;;;;;0.06;70.87;100035.28;4849046;29;20192;-84
2021/01/11 10:14:45;;;;;;;0.30;0.30;;;;;;;0.03;71.73;100027.69;4849771;29;20220;-84
2021/01/11 10:17:55;;;;;;;0.33;0.33;;;;;;;0.15;69.87;100033.59;4845360;29;20200;-84
2021/01/11 10:21:22;;;;;;;0.30;0.30;;;;;;;0.28;70.58;100036.75;4840233;29;20206;-84
2021/01/11 10:24:27;;;;;;;0.40;0.40;;;;;;;0.33;69.22;100032.69;4835390;29;20188;-85
2021/01/11 10:31:17;;;;;;;0.40;0.40;;;;;;;0.49;68.09;100026.81;4795318;30;20701;-84
2021/01/11 10:34:18;;;;;;;0.40;0.40;;;;;;;0.54;68.26;100023.75;4794892;30;20232;-84
2021/01/11 10:37:36;;;;;;;0.40;0.40;;;;;;;0.60;67.13;100031.91;4784265;30;20182;-84
2021/01/11 10:41:02;;;;;;;0.30;0.30;;;;;;;0.70;66.33;100014.19;4793638;30;20206;-86
2021/01/11 10:44:30;;;;;;;0.40;0.40;;;;;;;0.76;66.49;100018.06;4795278;30;20191;-84
2021/01/11 10:51:33;;;;;;;0.40;0.40;;;;;;;0.66;65.46;99991.75;4780519;30;20186;-85
2021/01/11 10:58:58;;;;;;;0.40;0.40;;;;;;;0.94;65.65;99989.91;4790733;29;20201;-84
2021/01/11 11:02:00;;;;;;;0.40;0.40;;;;;;;0.92;64.85;99991.88;4790703;29;20202;-84
2021/01/11 11:05:28;;;;;;;0.30;0.30;;;;;;;0.97;64.80;99988.78;4794596;29;20261;-84
2021/01/11 11:08:22;;;;;;;0.47;0.47;;;;;;;0.97;63.68;99976.44;4793174;29;20201;-85
2021/01/11 11:11:26;;;;;;;0.40;0.40;;;;;;;1.08;64.73;99992.03;4792029;30;20216;-85
2021/01/11 11:18:46;;;;;;;0.40;0.40;;;;;;;1.07;64.74;99963.16;4759232;30;20218;-85
2021/01/11 11:21:53;;;;;;;0.40;0.40;;;;;;;1.16;63.79;99967.53;4747129;30;20211;-85
2021/01/11 11:33:09;;;;;;;0.40;0.40;;;;;;;0.87;63.58;99950.13;4816827;29;20256;-84
2021/01/11 11:36:33;;;;;;;0.40;0.40;;;;;;;0.91;63.94;99958.56;4830917;29;20280;-85
2021/01/11 11:39:59;;;;;;;0.50;0.50;;;;;;;0.68;62.81;99955.53;4830397;29;20212;-85
2021/01/11 11:47:10;;;;;;;0.30;0.30;;;;;;;0.84;63.65;99939.03;4830486;29;20164;-85
2021/01/11 11:51:09;;;;;;;0.40;0.40;;;;;;;0.99;62.97;99956.00;4830527;29;20229;-84
2021/01/11 11:55:24;;;;;;;0.40;0.40;;;;;;;0.83;62.07;99953.22;4820443;29;20216;-85
2021/01/11 11:59:03;;;;;;;0.40;0.40;;;;;;;0.81;62.53;99948.06;4776297;30;20332;-85
2021/01/11 12:02:26;;;;;;;0.40;0.40;;;;;;;0.71;63.12;99941.19;4767006;30;20190;-85
2021/01/11 12:09:46;;;;;;;0.40;0.40;;;;;;;0.79;62.21;99928.91;4776143;30;20216;-84
2021/01/11 12:12:34;;;;;;;0.40;0.40;;;;;;;0.69;61.70;99919.44;4775879;30;20197;-85
2021/01/11 12:15:31;;;;;;;0.40;0.40;;;;;;;0.80;61.74;99927.94;4770323;30;20217;-84
2021/01/11 12:18:22;;;;;;;0.30;0.30;;;;;;;0.68;62.11;99917.78;4774220;30;20196;-84
2021/01/11 12:25:25;;;;;;;0.30;0.30;;;;;;;0.78;61.52;99910.63;4772248;30;20303;-85
2021/01/11 12:28:37;;;;;;;0.40;0.40;;;;;;;0.76;61.98;99904.66;4772895;29;20193;-85
2021/01/11 12:31:53;;;;;;;0.40;0.40;;;;;;;0.80;62.37;99901.56;4821415;29;20208;-84
2021/01/11 12:35:01;;;;;;;0.40;0.40;;;;;;;0.88;61.98;99920.13;4816342;29;20240;-85
2021/01/11 12:38:33;;;;;;;0.40;0.40;;;;;;;0.95;62.56;99916.88;4829449;29;20219;-85
2021/01/11 12:42:40;;;;;;;0.30;0.30;;;;;;;0.90;61.53;99906.75;4829710;29;20176;-85
2021/01/11 12:46:03;;;;;;;0.40;0.40;;;;;;;0.67;61.38;99897.63;4866596;29;20191;-85
2021/01/11 12:52:57;;;;;;;0.33;0.33;;;;;;;0.70;62.51;99894.72;4866568;29;20192;-85
2021/01/11 12:56:34;;;;;;;0.40;0.40;;;;;;;0.75;61.37;99901.19;4866404;29;20188;-85
2021/01/11 12:59:55;;;;;;;0.40;0.40;;;;;;;0.59;61.66;99894.94;4853435;29;20213;-85
2021/01/11 13:03:23;;;;;;;0.40;0.40;;;;;;;0.54;61.86;99886.63;4847738;29;20192;-85
2021/01/11 13:07:09;;;;;;;0.40;0.40;;;;;;;0.69;63.16;99901.81;4811688;29;20289;-84
2021/01/11 13:10:25;;;;;;;0.40;0.40;;;;;;;0.53;62.58;99890.25;4796230;29;20207;-84
2021/01/11 13:13:54;;;;;;;0.40;0.40;;;;;;;0.56;61.88;99896.03;4810852;29;20223;-85
2021/01/11 13:17:02;;;;;;;0.40;0.40;;;;;;;0.56;62.76;99896.03;4782122;30;20285;-85
2021/01/11 13:20:23;;;;;;;0.40;0.40;;;;;;;0.58;62.23;99891.47;4811243;29;20225;-85
2021/01/11 13:23:54;;;;;;;0.40;0.40;;;;;;;0.63;63.02;99894.47;4810325;29;20219;-86
2021/01/11 13:30:41;;;;;;;0.40;0.40;;;;;;;0.50;62.51;99878.22;4810907;29;20208;-85
2021/01/11 13:38:21;;;;;;;0.40;0.40;;;;;;;0.49;63.72;99892.34;4829292;29;20204;-85
2021/01/11 13:42:00;;;;;;;0.40;0.40;;;;;;;0.49;62.55;99887.09;4794300;29;20202;-85
2021/01/11 13:48:45;;;;;;;0.40;0.40;;;;;;;0.43;62.51;99872.69;4829381;29;20192;-85
2021/01/11 13:52:02;;;;;;;0.40;0.40;;;;;;;0.41;63.07;99877.31;4829044;29;20184;-85
2021/01/11 13:54:56;;;;;;;0.40;0.40;;;;;;;0.43;63.60;99880.59;4749758;29;20246;-86
2021/01/11 13:58:05;;;;;;;0.40;0.40;;;;;;;0.45;63.42;99875.19;4740520;30;20186;-85
2021/01/11 14:01:02;;;;;;;0.40;0.40;;;;;;;0.39;62.64;99875.78;4778038;30;20222;-85
2021/01/11 14:08:38;;;;;;;0.40;0.40;;;;;;;0.50;62.03;99885.28;4850658;29;20251;-85
2021/01/11 14:11:56;;;;;;;0.40;0.40;;;;;;;0.37;63.10;99875.91;4849775;29;20255;-85
2021/01/11 14:14:49;;;;;;;0.40;0.40;;;;;;;0.40;63.56;99873.00;4849492;29;20228;-85
2021/01/11 14:22:11;;;;;;;0.30;0.30;;;;;;;0.31;62.90;99873.06;4796285;29;20209;-85
2021/01/11 14:25:54;;;;;;;0.40;0.40;;;;;;;0.40;63.02;99880.06;4804738;29;20200;-85
2021/01/11 14:29:37;;;;;;;;;;;;;;;;;;;;;
2021/01/11 14:33:02;;;;;;;0.40;0.40;;;;;;;0.11;64.43;99863.59;4821174;29;20228;-85
2021/01/11 14:45:09;;;;;;;0.40;0.40;;;;;;;-0.01;65.33;99879.63;4800800;29;20241;-86
2021/01/11 14:49:15;;;;;;;0.40;0.40;;;;;;;-0.11;64.98;99880.63;4813597;29;20182;-85
2021/01/11 15:01:52;;;;;;;0.40;0.40;;;;;;;-0.51;66.25;99880.91;4779116;30;20194;-86
2021/01/11 15:06:06;;;;;;;0.40;0.40;;;;;;;-0.59;67.02;99889.50;4795297;30;20173;-86
2021/01/11 16:13:44;;;;;;;0.40;0.40;;;;;;;-2.10;74.43;99861.25;4940740;29;20227;-86
2021/01/11 16:17:15;;;;;;;0.40;0.40;;;;;;;-2.04;74.42;99872.03;4931840;29;20239;-85
2021/01/11 16:25:35;;;;;;;0.40;0.40;;;;;;;-2.15;75.27;99866.06;4758456;30;20191;-86
2021/01/11 16:37:18;;;;;;;0.40;0.40;;;;;;;-2.43;74.35;99833.50;4765284;30;20198;-85
2021/01/11 16:40:44;;;;;;;0.47;0.47;;;;;;;-2.39;74.80;99848.00;4793809;30;20180;-85
2021/01/11 16:44:46;;;;;;;0.40;0.40;;;;;;;-2.38;74.38;99853.09;4774407;30;20195;-85
2021/01/11 16:48:18;;;;;;;0.40;0.40;;;;;;;-2.31;73.87;99851.63;4775088;30;20229;-85
2021/01/11 16:51:34;;;;;;;0.47;0.47;;;;;;;-2.40;73.83;99843.72;4759166;30;20233;-85
2021/01/11 16:55:03;;;;;;;0.43;0.43;;;;;;;-2.35;73.66;99863.38;4793493;29;20234;-85
2021/01/11 16:58:44;;;;;;;0.40;0.40;;;;;;;-2.42;74.36;99859.59;4849852;29;20186;-84
2021/01/11 17:01:46;;;;;;;0.40;0.40;;;;;;;-2.63;74.76;99848.31;4891442;29;20185;-85
2021/01/11 17:05:07;;;;;;;0.40;0.40;;;;;;;-2.68;75.13;99853.97;4908858;29;20201;-85
2021/01/11 17:08:49;;;;;;;0.50;0.50;;;;;;;-2.63;75.74;99860.59;4941914;29;20215;-85
2021/01/11 17:15:51;;;;;;;0.40;0.40;;;;;;;-2.79;76.58;99858.44;4941343;29;20204;-84
2021/01/11 17:23:03;;;;;;;0.50;0.50;;;;;;;-3.04;76.66;99856.22;4941341;29;20248;-85
2021/01/11 17:26:06;;;;;;;0.50;0.50;;;;;;;-3.12;76.29;99860.28;4910299;29;20216;-85
2021/01/11 17:29:04;;;;;;;0.40;0.40;;;;;;;-3.12;76.58;99865.53;4911239;29;20201;-85
2021/01/11 17:31:56;;;;;;;0.40;0.40;;;;;;;-3.27;76.39;99853.72;4913197;29;20205;-85
2021/01/11 17:34:54;;;;;;;0.50;0.50;;;;;;;-3.27;76.67;99858.97;4913841;29;20211;-84
2021/01/11 17:38:14;;;;;;;0.40;0.40;;;;;;;-3.30;76.79;99859.19;4825558;29;20204;-83
2021/01/11 17:41:31;;;;;;;0.40;0.40;;;;;;;-3.26;77.14;99867.63;4850210;29;20196;-84
2021/01/11 17:47:56;;;;;;;0.40;0.40;;;;;;;-3.33;76.75;99866.47;4848546;29;20195;-84
2021/01/11 17:51:00;;;;;;;0.40;0.40;;;;;;;-3.48;77.17;99863.31;4838083;29;20180;-84
2021/01/11 17:53:58;;;;;;;0.50;0.50;;;;;;;-3.49;77.70;99876.53;4837862;29;20280;-84
2021/01/11 17:56:53;;;;;;;0.40;0.40;;;;;;;-3.56;77.82;99869.19;4849127;29;20200;-84
2021/01/11 17:59:54;;;;;;;0.40;0.40;;;;;;;-3.50;77.87;99883.59;4823356;29;20200;-85
2021/01/11 18:02:43;;;;;;;0.50;0.50;;;;;;;-3.66;77.99;99867.44;4819690;29;20199;-87
2021/01/11 18:05:48;;;;;;;0.40;0.40;;;;;;;-3.73;78.12;99863.63;4825692;29;20194;-84
2021/01/11 18:08:40;;;;;;;0.40;0.40;;;;;;;-3.72;78.39;99881.00;4849646;29;20259;-84
2021/01/11 18:11:28;;;;;;;0.40;0.40;;;;;;;-3.80;78.33;99868.53;4836114;29;20479;-83
2021/01/11 18:14:23;;;;;;;0.40;0.40;;;;;;;-3.87;78.28;99862.13;4815265;29;20228;-83